Time;durP1;ratioP1;P1;durP2;ratioP2;P2;SDS_P1;SDS_P2;PMS_P1;PMS_P2;Temp;Humidity;BMP_temperature;BMP_pressure;BME280_temperature;BME280_humidity;BME280_pressure;Samples;Min_cycle;Max_cycle;Signal;HPM_P1;HPM_P2
2023/02/03 00:01:37;;;;;;;;;;;2.60;99.90;;;;;;5006407;28;20270;-78
2023/02/03 00:04:02;;;;;;;;;;;2.50;99.90;;;;;;5007404;28;19919;-77
2023/02/03 00:06:29;;;;;;;;;;;2.50;99.90;;;;;;5022832;28;20008;-76
2023/02/03 00:08:57;;;;;;;;;;;2.60;99.90;;;;;;5019610;28;19913;-77
2023/02/03 00:11:22;;;;;;;;;;;2.60;99.90;;;;;;5017440;28;19913;-77
2023/02/03 00:13:48;;;;;;;;;;;2.70;99.90;;;;;;5021539;28;20159;-77
2023/02/03 00:16:13;;;;;;;;;;;2.50;99.90;;;;;;5019433;28;20330;-76
2023/02/03 00:18:39;;;;;;;;;;;2.40;99.90;;;;;;5020963;28;19959;-77
2023/02/03 00:21:05;;;;;;;;;;;2.40;99.90;;;;;;5014164;28;20061;-76
2023/02/03 00:23:31;;;;;;;;;;;2.40;99.90;;;;;;5008790;28;20507;-78
2023/02/03 00:25:57;;;;;;;;;;;2.30;99.90;;;;;;5014134;28;19947;-78
2023/02/03 00:28:27;;;;;;;;;;;2.30;99.90;;;;;;5016226;28;19913;-76
2023/02/03 00:30:52;;;;;;;;;;;2.20;99.90;;;;;;5017965;28;19917;-78
2023/02/03 00:33:18;;;;;;;;;;;2.30;99.90;;;;;;5018668;28;19913;-77
2023/02/03 00:35:44;;;;;;;;;;;2.30;99.90;;;;;;5017674;28;19913;-76
2023/02/03 00:38:09;;;;;;;;;;;2.20;99.90;;;;;;5017753;28;19928;-79
2023/02/03 00:40:35;;;;;;;;;;;2.10;99.90;;;;;;5016376;28;19916;-77
2023/02/03 00:43:00;;;;;;;;;;;2.10;99.90;;;;;;5015847;28;20036;-76
2023/02/03 00:45:26;;;;;;;;;;;2.10;99.90;;;;;;5018598;28;19988;-79
2023/02/03 00:47:51;;;;;;;;;;;2.10;99.90;;;;;;5016958;28;19943;-78
2023/02/03 00:50:17;;;;;;;;;;;2.10;99.90;;;;;;5019057;28;19917;-77
2023/02/03 00:52:43;;;;;;;;;;;2.00;99.90;;;;;;5011686;28;19920;-77
2023/02/03 00:55:08;;;;;;;;;;;2.00;99.90;;;;;;5008379;28;19951;-77
2023/02/03 00:57:34;;;;;;;;;;;1.90;99.90;;;;;;5015394;28;20011;-76
2023/02/03 00:59:59;;;;;;;;;;;1.80;99.90;;;;;;5019135;28;19932;-75
2023/02/03 01:02:25;;;;;;;;;;;1.70;99.90;;;;;;5017127;28;19917;-75
2023/02/03 01:04:50;;;;;;;;;;;1.70;99.90;;;;;;4996433;28;19917;-76
2023/02/03 01:07:16;;;;;;;;;;;1.70;99.90;;;;;;5019420;28;19924;-76
2023/02/03 01:09:42;;;;;;;;;;;1.70;99.90;;;;;;5018877;28;20094;-77
2023/02/03 01:12:08;;;;;;;;;;;1.70;99.90;;;;;;5017680;28;19921;-77
2023/02/03 01:14:33;;;;;;;;;;;1.70;99.90;;;;;;5012463;28;19912;-77
2023/02/03 01:16:59;;;;;;;;;;;1.70;99.90;;;;;;5017349;28;19960;-76
2023/02/03 01:19:24;;;;;;;;;;;1.70;99.90;;;;;;5014191;28;19913;-76
2023/02/03 01:21:50;;;;;;;;;;;1.70;99.90;;;;;;5016221;28;20470;-75
2023/02/03 01:24:16;;;;;;;;;;;1.70;99.90;;;;;;5020802;28;20308;-76
2023/02/03 01:26:42;;;;;;;;;;;1.80;99.90;;;;;;5008439;28;19917;-77
2023/02/03 01:29:07;;;;;;;;;;;1.80;99.90;;;;;;5018211;28;19917;-76
2023/02/03 01:31:35;;;;;;;;;;;1.80;99.90;;;;;;5017016;28;19917;-76
2023/02/03 01:34:01;;;;;;;;;;;1.80;99.90;;;;;;5016927;28;20524;-77
2023/02/03 01:36:28;;;;;;;;;;;1.70;99.90;;;;;;5018121;28;20003;-78
2023/02/03 01:38:54;;;;;;;;;;;1.60;99.90;;;;;;5012927;28;19920;-77
2023/02/03 01:41:23;;;;;;;;;;;1.70;99.90;;;;;;5014052;28;19913;-75
2023/02/03 01:43:50;;;;;;;;;;;1.80;99.90;;;;;;5017920;28;19917;-76
2023/02/03 01:46:25;;;;;;;;;;;1.70;99.90;;;;;;5018235;28;20080;-75
2023/02/03 01:48:52;;;;;;;;;;;1.70;99.90;;;;;;5019811;28;19952;-76
2023/02/03 01:51:18;;;;;;;;;;;1.60;99.90;;;;;;5011378;28;19917;-76
2023/02/03 01:53:44;;;;;;;;;;;1.50;99.90;;;;;;5016461;28;19954;-78
2023/02/03 01:56:10;;;;;;;;;;;1.70;99.90;;;;;;5019013;28;19992;-75
2023/02/03 01:58:41;;;;;;;;;;;1.40;99.90;;;;;;5008033;28;19909;-76
2023/02/03 02:01:06;;;;;;;;;;;1.40;99.90;;;;;;5008580;28;19928;-76
2023/02/03 02:03:52;;;;;;;;;;;1.40;99.90;;;;;;5011927;28;19913;-76
2023/02/03 02:06:18;;;;;;;;;;;1.40;99.90;;;;;;5003867;28;19917;-77
2023/02/03 02:08:46;;;;;;;;;;;1.50;99.90;;;;;;5005717;28;19963;-76
2023/02/03 02:11:12;;;;;;;;;;;1.30;99.90;;;;;;5014303;28;20367;-76
2023/02/03 02:13:38;;;;;;;;;;;1.30;99.90;;;;;;4993013;28;19914;-76
2023/02/03 02:16:07;;;;;;;;;;;1.30;99.90;;;;;;4999900;28;20816;-76
2023/02/03 02:18:49;;;;;;;;;;;1.40;99.90;;;;;;5013362;28;19996;-77
2023/02/03 02:21:23;;;;;;;;;;;1.40;99.90;;;;;;5007883;28;19913;-77
2023/02/03 02:23:48;;;;;;;;;;;1.30;99.90;;;;;;5012834;28;19967;-76
2023/02/03 02:26:36;;;;;;;;;;;1.30;99.90;;;;;;5014914;28;19917;-75
2023/02/03 02:29:21;;;;;;;;;;;1.20;99.90;;;;;;5010117;28;19991;-77
2023/02/03 02:32:02;;;;;;;;;;;1.10;99.90;;;;;;5016928;28;19956;-75
2023/02/03 02:34:46;;;;;;;;;;;1.30;99.90;;;;;;5017594;28;19916;-75
2023/02/03 02:37:11;;;;;;;;;;;1.20;99.90;;;;;;5017338;28;19912;-79
2023/02/03 02:39:52;;;;;;;;;;;1.30;99.90;;;;;;5016851;28;19932;-75
2023/02/03 02:42:23;;;;;;;;;;;1.50;99.90;;;;;;5019530;28;19923;-75
2023/02/03 02:44:57;;;;;;;;;;;1.70;99.90;;;;;;5011851;28;19917;-74
2023/02/03 02:47:23;;;;;;;;;;;1.60;99.90;;;;;;5019038;28;19917;-75
2023/02/03 02:49:55;;;;;;;;;;;1.40;99.90;;;;;;5018371;28;19924;-78
2023/02/03 02:52:23;;;;;;;;;;;1.50;99.90;;;;;;5008557;28;19984;-77
2023/02/03 02:54:50;;;;;;;;;;;1.30;99.90;;;;;;5011960;28;19955;-77
2023/02/03 02:57:17;;;;;;;;;;;1.20;99.90;;;;;;5009607;28;19905;-77
2023/02/03 02:59:43;;;;;;;;;;;1.00;99.90;;;;;;5012217;28;20281;-76
2023/02/03 03:02:10;;;;;;;;;;;1.00;99.90;;;;;;5016726;28;20045;-76
2023/02/03 03:04:35;;;;;;;;;;;0.90;99.90;;;;;;5016414;28;19917;-76
2023/02/03 03:07:09;;;;;;;;;;;0.90;99.90;;;;;;5013320;28;19928;-76
2023/02/03 03:09:39;;;;;;;;;;;0.90;99.90;;;;;;5017569;28;19920;-76
2023/02/03 03:12:09;;;;;;;;;;;1.10;99.90;;;;;;5008433;28;19928;-76
2023/02/03 03:14:35;;;;;;;;;;;1.00;99.90;;;;;;5010008;28;19913;-78
2023/02/03 03:17:04;;;;;;;;;;;1.00;99.90;;;;;;5019874;28;20657;-76
2023/02/03 03:19:32;;;;;;;;;;;1.00;99.90;;;;;;5010063;28;19928;-77
2023/02/03 03:22:00;;;;;;;;;;;1.10;99.90;;;;;;5011887;28;20703;-76
2023/02/03 03:24:30;;;;;;;;;;;1.10;99.90;;;;;;5015300;28;19923;-77
2023/02/03 03:27:00;;;;;;;;;;;1.10;99.90;;;;;;5010845;28;19914;-77
2023/02/03 03:29:29;;;;;;;;;;;1.10;99.90;;;;;;5016683;28;20008;-77
2023/02/03 03:31:55;;;;;;;;;;;1.20;99.90;;;;;;5019934;28;19959;-76
2023/02/03 03:34:20;;;;;;;;;;;1.10;99.90;;;;;;5022388;28;19921;-78
2023/02/03 03:36:57;;;;;;;;;;;1.20;99.90;;;;;;5022461;28;20006;-76
2023/02/03 03:39:41;;;;;;;;;;;1.20;99.90;;;;;;5020980;28;19917;-76
2023/02/03 03:42:11;;;;;;;;;;;1.20;99.90;;;;;;5020019;28;19909;-78
2023/02/03 03:44:42;;;;;;;;;;;1.10;99.90;;;;;;4998084;28;19932;-75
2023/02/03 03:47:18;;;;;;;;;;;1.10;99.90;;;;;;5020299;28;19920;-76
2023/02/03 03:49:44;;;;;;;;;;;1.20;99.90;;;;;;5017671;28;19913;-77
2023/02/03 03:52:11;;;;;;;;;;;1.00;99.90;;;;;;5017932;28;20706;-76
2023/02/03 03:54:39;;;;;;;;;;;1.10;99.90;;;;;;5017691;28;19912;-77
2023/02/03 03:57:13;;;;;;;;;;;1.00;99.90;;;;;;5022989;28;19947;-76
2023/02/03 03:59:40;;;;;;;;;;;1.20;99.90;;;;;;5018468;28;19975;-77
2023/02/03 04:02:06;;;;;;;;;;;1.30;99.90;;;;;;5016558;28;19909;-76
2023/02/03 04:04:32;;;;;;;;;;;1.20;99.90;;;;;;5005462;28;19913;-76
2023/02/03 04:06:58;;;;;;;;;;;1.10;99.90;;;;;;5015517;28;20737;-77
2023/02/03 04:09:24;;;;;;;;;;;1.00;99.90;;;;;;5011246;28;19909;-76
2023/02/03 04:12:01;;;;;;;;;;;0.90;99.90;;;;;;5019890;28;19945;-77
2023/02/03 04:14:29;;;;;;;;;;;1.00;99.90;;;;;;5019149;28;19909;-77
2023/02/03 04:16:56;;;;;;;;;;;0.90;99.90;;;;;;5020244;28;19913;-76
2023/02/03 04:19:22;;;;;;;;;;;0.70;99.90;;;;;;5023699;28;20451;-77
2023/02/03 04:21:47;;;;;;;;;;;0.70;99.90;;;;;;5010627;28;19913;-76
2023/02/03 04:24:13;;;;;;;;;;;0.70;99.90;;;;;;5005386;28;19921;-77
2023/02/03 04:26:38;;;;;;;;;;;0.70;99.90;;;;;;5005749;28;19939;-79
2023/02/03 04:29:04;;;;;;;;;;;0.80;99.90;;;;;;5005088;28;19979;-77
2023/02/03 04:31:30;;;;;;;;;;;0.80;99.90;;;;;;4998803;28;19917;-76
2023/02/03 04:33:55;;;;;;;;;;;0.80;99.90;;;;;;5022128;28;19963;-77
2023/02/03 04:36:21;;;;;;;;;;;0.70;99.90;;;;;;5015695;28;19960;-78
2023/02/03 04:38:49;;;;;;;;;;;0.70;99.90;;;;;;5020563;28;19971;-77
2023/02/03 04:41:15;;;;;;;;;;;0.60;99.90;;;;;;5019381;28;20402;-77
2023/02/03 04:43:40;;;;;;;;;;;0.50;99.90;;;;;;5013904;28;19917;-76
2023/02/03 04:46:06;;;;;;;;;;;0.40;99.90;;;;;;5010837;28;19920;-77
2023/02/03 04:48:31;;;;;;;;;;;0.50;99.90;;;;;;5014442;28;19975;-77
2023/02/03 04:51:03;;;;;;;;;;;0.40;99.90;;;;;;5020503;28;19924;-77
2023/02/03 04:53:29;;;;;;;;;;;0.40;99.90;;;;;;5011657;28;19935;-77
2023/02/03 04:55:55;;;;;;;;;;;0.40;99.90;;;;;;5018569;28;19979;-76
2023/02/03 04:58:21;;;;;;;;;;;0.40;99.90;;;;;;5014272;28;20819;-78
2023/02/03 05:00:46;;;;;;;;;;;0.40;99.90;;;;;;5011691;28;20407;-76
2023/02/03 05:03:12;;;;;;;;;;;0.40;99.90;;;;;;5011014;28;19917;-76
2023/02/03 05:05:38;;;;;;;;;;;0.30;99.90;;;;;;5010728;28;19913;-76
2023/02/03 05:08:03;;;;;;;;;;;0.40;99.90;;;;;;4994579;28;19918;-76
2023/02/03 05:10:29;;;;;;;;;;;0.50;99.90;;;;;;5021605;28;19913;-75
2023/02/03 05:12:54;;;;;;;;;;;0.50;99.90;;;;;;5009716;28;20289;-75
2023/02/03 05:15:20;;;;;;;;;;;0.50;99.90;;;;;;5018966;28;19917;-76
2023/02/03 05:17:46;;;;;;;;;;;0.50;99.90;;;;;;5010463;28;20075;-79
2023/02/03 05:20:11;;;;;;;;;;;0.50;99.90;;;;;;5022449;28;19919;-76
2023/02/03 05:22:37;;;;;;;;;;;0.50;99.90;;;;;;5016783;28;19928;-76
2023/02/03 05:25:03;;;;;;;;;;;0.50;99.90;;;;;;5012715;28;19917;-76
2023/02/03 05:27:29;;;;;;;;;;;0.40;99.90;;;;;;5014275;28;19917;-75
2023/02/03 05:29:54;;;;;;;;;;;0.50;99.90;;;;;;5001722;28;19999;-76
2023/02/03 05:32:20;;;;;;;;;;;0.40;99.90;;;;;;5019475;28;19940;-77
2023/02/03 05:34:46;;;;;;;;;;;0.40;99.90;;;;;;5021364;28;19913;-76
2023/02/03 05:37:11;;;;;;;;;;;0.40;99.90;;;;;;5013919;28;19917;-80
2023/02/03 05:39:37;;;;;;;;;;;0.40;99.90;;;;;;5011280;28;19924;-77
2023/02/03 05:42:04;;;;;;;;;;;0.40;99.90;;;;;;5011901;28;20373;-76
2023/02/03 05:44:30;;;;;;;;;;;0.40;99.90;;;;;;5014714;28;19923;-76
2023/02/03 05:46:56;;;;;;;;;;;0.40;99.90;;;;;;5014329;28;19913;-76
2023/02/03 05:49:22;;;;;;;;;;;0.40;99.90;;;;;;5007552;28;20272;-77
2023/02/03 05:51:49;;;;;;;;;;;0.40;99.90;;;;;;5012272;28;19917;-76
2023/02/03 05:54:15;;;;;;;;;;;0.40;99.90;;;;;;5020370;28;19909;-78
2023/02/03 05:56:41;;;;;;;;;;;0.40;99.90;;;;;;5016146;28;19916;-76
2023/02/03 05:59:06;;;;;;;;;;;0.40;99.90;;;;;;5017607;28;20464;-77
2023/02/03 06:01:32;;;;;;;;;;;0.40;99.90;;;;;;5018773;28;19928;-79
2023/02/03 06:03:58;;;;;;;;;;;0.30;99.90;;;;;;5016897;28;19921;-77
2023/02/03 06:06:23;;;;;;;;;;;0.30;99.90;;;;;;4996177;28;19917;-77
2023/02/03 06:08:51;;;;;;;;;;;0.20;99.90;;;;;;5008479;28;19913;-78
2023/02/03 06:11:17;;;;;;;;;;;0.20;99.90;;;;;;4995649;28;19910;-77
2023/02/03 06:13:42;;;;;;;;;;;0.20;99.90;;;;;;5012560;28;19927;-77
2023/02/03 06:16:08;;;;;;;;;;;0.10;99.90;;;;;;5008960;28;19917;-76
2023/02/03 06:18:33;;;;;;;;;;;0.30;99.90;;;;;;5014527;28;19921;-79
2023/02/03 06:20:59;;;;;;;;;;;0.10;99.90;;;;;;5008626;28;20365;-76
2023/02/03 06:23:25;;;;;;;;;;;0.20;99.90;;;;;;5008860;28;20557;-77
2023/02/03 06:25:51;;;;;;;;;;;0.20;99.90;;;;;;5006259;28;19969;-78
2023/02/03 06:28:16;;;;;;;;;;;0.20;99.90;;;;;;5014704;28;20285;-79
2023/02/03 06:30:42;;;;;;;;;;;0.40;99.90;;;;;;5012416;28;19913;-78
2023/02/03 06:33:07;;;;;;;;;;;0.40;99.90;;;;;;5009520;28;19924;-77
2023/02/03 06:35:33;;;;;;;;;;;0.40;99.90;;;;;;5002604;28;19932;-76
2023/02/03 06:37:59;;;;;;;;;;;0.30;99.90;;;;;;5010871;28;19944;-82
2023/02/03 06:40:24;;;;;;;;;;;0.30;99.90;;;;;;5021323;28;19916;-81
2023/02/03 06:42:50;;;;;;;;;;;0.20;99.90;;;;;;5021899;28;20621;-83
2023/02/03 06:45:16;;;;;;;;;;;0.10;99.90;;;;;;5019527;28;19968;-82
2023/02/03 06:47:42;;;;;;;;;;;0.00;99.90;;;;;;5017892;28;20020;-82
2023/02/03 06:50:08;;;;;;;;;;;0.00;99.90;;;;;;5010658;28;19909;-82
2023/02/03 06:52:33;;;;;;;;;;;0.00;99.90;;;;;;5021619;28;19909;-81
2023/02/03 06:54:59;;;;;;;;;;;0.10;99.90;;;;;;5016164;28;19941;-82
2023/02/03 06:57:24;;;;;;;;;;;0.10;99.90;;;;;;5006708;28;19909;-82
2023/02/03 06:59:50;;;;;;;;;;;0.10;99.90;;;;;;5022598;28;19928;-82
2023/02/03 07:02:16;;;;;;;;;;;0.00;99.90;;;;;;5007020;28;19909;-81
2023/02/03 07:04:43;;;;;;;;;;;0.00;99.90;;;;;;5014955;28;19920;-84
2023/02/03 07:07:10;;;;;;;;;;;-0.10;99.90;;;;;;5019574;28;19920;-82
2023/02/03 07:09:35;;;;;;;;;;;-0.10;99.90;;;;;;5014409;28;20425;-83
2023/02/03 07:12:01;;;;;;;;;;;-0.10;99.90;;;;;;5006277;28;19992;-83
2023/02/03 07:14:26;;;;;;;;;;;-0.10;99.90;;;;;;5014823;28;19996;-83
2023/02/03 07:16:53;;;;;;;;;;;-0.10;99.90;;;;;;5019444;28;19957;-81
2023/02/03 07:19:18;;;;;;;;;;;-0.10;99.90;;;;;;5013026;28;19918;-82
2023/02/03 07:21:44;;;;;;;;;;;-0.10;99.90;;;;;;5022548;28;20423;-81
2023/02/03 07:24:10;;;;;;;;;;;-0.10;99.90;;;;;;5024553;28;19997;-82
2023/02/03 07:26:35;;;;;;;;;;;-0.10;99.90;;;;;;5009109;28;20369;-82
2023/02/03 07:29:01;;;;;;;;;;;0.00;99.90;;;;;;5006175;28;20721;-81
2023/02/03 07:31:26;;;;;;;;;;;0.00;99.90;;;;;;5009358;28;19913;-82
2023/02/03 07:33:52;;;;;;;;;;;0.20;99.90;;;;;;5016399;28;19916;-82
2023/02/03 07:36:17;;;;;;;;;;;0.60;99.90;;;;;;5009474;28;19913;-82
2023/02/03 07:38:43;;;;;;;;;;;1.40;99.90;;;;;;5013323;28;20380;-83
2023/02/03 07:41:09;;;;;;;;;;;1.90;99.90;;;;;;5017985;28;19909;-82
2023/02/03 07:43:34;;;;;;;;;;;2.30;99.90;;;;;;5007532;28;19966;-83
2023/02/03 07:46:00;;;;;;;;;;;2.30;99.90;;;;;;5018438;28;19917;-82
2023/02/03 07:48:26;;;;;;;;;;;2.40;99.90;;;;;;4994163;28;19909;-83
2023/02/03 07:50:52;;;;;;;;;;;2.50;99.90;;;;;;4993932;28;19931;-82
2023/02/03 07:53:17;;;;;;;;;;;2.60;99.90;;;;;;5013760;28;19918;-82
2023/02/03 07:55:43;;;;;;;;;;;2.70;99.90;;;;;;5012868;28;20300;-82
2023/02/03 07:58:08;;;;;;;;;;;3.00;99.90;;;;;;5010513;28;20308;-82
2023/02/03 08:00:34;;;;;;;;;;;3.20;99.90;;;;;;5015927;28;19927;-82
2023/02/03 08:02:59;;;;;;;;;;;3.40;99.90;;;;;;5012639;28;19921;-82
2023/02/03 08:05:25;;;;;;;;;;;3.90;99.90;;;;;;5016797;28;19916;-82
2023/02/03 08:07:51;;;;;;;;;;;3.90;99.90;;;;;;5007243;28;19941;-82
2023/02/03 08:10:16;;;;;;;;;;;4.30;99.40;;;;;;5010151;28;19916;-83
2023/02/03 08:12:43;;;;;;;;;;;4.30;98.80;;;;;;5012385;28;19910;-83
2023/02/03 08:15:09;;;;;;;;;;;4.20;99.40;;;;;;5013548;28;19956;-82
2023/02/03 08:17:35;;;;;;;;;;;4.40;98.80;;;;;;5005225;28;19967;-82
2023/02/03 08:20:00;;;;;;;;;;;4.20;98.60;;;;;;5017991;28;19966;-82
2023/02/03 08:22:26;;;;;;;;;;;4.50;98.20;;;;;;5020835;28;19913;-82
2023/02/03 08:24:52;;;;;;;;;;;4.70;98.00;;;;;;5008896;28;19917;-82
2023/02/03 08:27:19;;;;;;;;;;;4.60;98.30;;;;;;5005463;28;20654;-82
2023/02/03 08:29:45;;;;;;;;;;;4.30;98.40;;;;;;5005339;28;20362;-82
2023/02/03 08:32:12;;;;;;;;;;;4.40;98.10;;;;;;5013094;28;19935;-82
2023/02/03 08:34:38;;;;;;;;;;;4.20;97.90;;;;;;5009324;28;19917;-82
2023/02/03 08:37:04;;;;;;;;;;;4.20;98.30;;;;;;5005328;28;19910;-82
2023/02/03 08:39:31;;;;;;;;;;;4.30;97.60;;;;;;5011394;28;19909;-82
2023/02/03 08:41:56;;;;;;;;;;;4.40;97.50;;;;;;5013496;28;19909;-83
2023/02/03 08:44:22;;;;;;;;;;;4.40;97.30;;;;;;5013247;28;19985;-83
2023/02/03 08:46:48;;;;;;;;;;;4.70;97.60;;;;;;5009703;28;20469;-82
2023/02/03 08:49:14;;;;;;;;;;;4.70;96.50;;;;;;5012366;28;19924;-82
2023/02/03 08:51:39;;;;;;;;;;;4.70;96.10;;;;;;5008972;28;19913;-82
2023/02/03 08:54:05;;;;;;;;;;;4.70;96.60;;;;;;5012388;28;19956;-83
2023/02/03 08:56:32;;;;;;;;;;;4.70;95.80;;;;;;4996789;28;20363;-83
2023/02/03 08:58:58;;;;;;;;;;;4.90;95.70;;;;;;5010661;28;19913;-82
2023/02/03 09:01:24;;;;;;;;;;;4.90;95.40;;;;;;5007804;28;19928;-83
2023/02/03 09:03:50;;;;;;;;;;;5.10;96.60;;;;;;5007425;28;19909;-83
2023/02/03 09:06:15;;;;;;;;;;;5.00;94.50;;;;;;5003991;28;19913;-83
2023/02/03 09:08:41;;;;;;;;;;;5.00;96.10;;;;;;5005452;28;20261;-82
2023/02/03 09:11:10;;;;;;;;;;;5.00;95.40;;;;;;5011887;28;19917;-82
2023/02/03 09:13:36;;;;;;;;;;;5.10;94.90;;;;;;5009064;28;19912;-82
2023/02/03 09:16:02;;;;;;;;;;;5.10;95.80;;;;;;4993613;28;19952;-82
2023/02/03 09:18:27;;;;;;;;;;;5.10;94.80;;;;;;5022147;28;19971;-81
2023/02/03 09:20:59;;;;;;;;;;;5.20;95.30;;;;;;5007490;28;19913;-82
2023/02/03 09:23:24;;;;;;;;;;;5.50;95.50;;;;;;5018686;28;19921;-82
2023/02/03 09:25:50;;;;;;;;;;;5.60;95.20;;;;;;4990239;28;19999;-81
2023/02/03 09:28:15;;;;;;;;;;;5.60;94.00;;;;;;4987607;28;19909;-82
2023/02/03 09:30:41;;;;;;;;;;;5.70;94.30;;;;;;5003830;28;20371;-82
2023/02/03 09:33:06;;;;;;;;;;;5.80;94.10;;;;;;5017109;28;19909;-82
2023/02/03 09:35:32;;;;;;;;;;;5.70;94.30;;;;;;5005576;28;20454;-82
2023/02/03 09:37:59;;;;;;;;;;;5.70;93.40;;;;;;5005486;28;19913;-81
2023/02/03 09:40:29;;;;;;;;;;;5.80;94.20;;;;;;5005989;28;19957;-82
2023/02/03 09:43:13;;;;;;;;;;;6.00;94.60;;;;;;5009027;28;19909;-83
2023/02/03 09:45:38;;;;;;;;;;;6.00;92.80;;;;;;5018133;28;19921;-82
2023/02/03 09:48:13;;;;;;;;;;;6.00;93.40;;;;;;5015872;28;19916;-81
2023/02/03 09:50:40;;;;;;;;;;;6.00;93.00;;;;;;5005320;28;19963;-82
2023/02/03 09:53:24;;;;;;;;;;;6.10;93.20;;;;;;5010177;28;19909;-82
2023/02/03 09:55:50;;;;;;;;;;;6.20;93.00;;;;;;5012717;28;19916;-82
2023/02/03 09:58:18;;;;;;;;;;;6.30;93.10;;;;;;5009176;28;19909;-81
2023/02/03 10:00:46;;;;;;;;;;;6.10;91.40;;;;;;5009589;28;19957;-82
2023/02/03 10:03:15;;;;;;;;;;;6.10;92.00;;;;;;5009265;28;19910;-82
2023/02/03 10:05:47;;;;;;;;;;;6.60;93.20;;;;;;5015842;28;20689;-82
2023/02/03 10:08:12;;;;;;;;;;;6.60;91.60;;;;;;5010876;28;19952;-81
2023/02/03 10:10:39;;;;;;;;;;;6.80;92.20;;;;;;5010927;28;20018;-81
2023/02/03 10:13:05;;;;;;;;;;;7.00;92.60;;;;;;5004574;28;19917;-84
2023/02/03 10:15:40;;;;;;;;;;;7.10;92.00;;;;;;5017891;28;19908;-81
2023/02/03 10:18:08;;;;;;;;;;;6.80;91.30;;;;;;5015218;28;19958;-81
2023/02/03 10:20:37;;;;;;;;;;;6.90;92.90;;;;;;5009139;28;19910;-80
2023/02/03 10:23:10;;;;;;;;;;;6.70;91.20;;;;;;5017684;28;19913;-81
2023/02/03 10:25:40;;;;;;;;;;;6.70;92.40;;;;;;4985651;28;20420;-81
2023/02/03 10:28:13;;;;;;;;;;;6.80;92.20;;;;;;5005376;28;20487;-81
2023/02/03 10:30:44;;;;;;;;;;;6.80;92.90;;;;;;5012356;28;20004;-80
2023/02/03 10:33:15;;;;;;;;;;;6.70;92.00;;;;;;5016238;28;19909;-80
2023/02/03 10:35:48;;;;;;;;;;;6.80;91.60;;;;;;5008075;28;20344;-80
2023/02/03 10:38:50;;;;;;;;;;;6.90;91.50;;;;;;5009259;28;19909;-79
2023/02/03 10:41:16;;;;;;;;;;;7.00;91.80;;;;;;4944728;28;19910;-80
2023/02/03 10:43:50;;;;;;;;;;;7.10;91.10;;;;;;4999350;28;19921;-79
2023/02/03 10:46:28;;;;;;;;;;;6.90;91.30;;;;;;5018969;28;19967;-79
2023/02/03 10:48:54;;;;;;;;;;;7.10;90.90;;;;;;5009854;28;19953;-79
2023/02/03 10:51:24;;;;;;;;;;;6.90;90.70;;;;;;5001379;28;20269;-78
2023/02/03 10:53:52;;;;;;;;;;;7.00;90.80;;;;;;5012882;28;20376;-79
2023/02/03 10:56:22;;;;;;;;;;;7.10;91.20;;;;;;5015879;28;19909;-79
2023/02/03 10:58:56;;;;;;;;;;;7.20;90.80;;;;;;5014679;28;19913;-79
2023/02/03 11:01:26;;;;;;;;;;;7.30;90.70;;;;;;5007635;28;19995;-79
2023/02/03 11:03:57;;;;;;;;;;;7.00;90.40;;;;;;5006922;28;19936;-79
2023/02/03 11:06:22;;;;;;;;;;;7.00;91.30;;;;;;5013254;28;20010;-79
2023/02/03 11:08:49;;;;;;;;;;;7.00;91.20;;;;;;5019029;28;20031;-79
2023/02/03 11:11:21;;;;;;;;;;;6.80;90.00;;;;;;4995253;28;20631;-79
2023/02/03 11:13:51;;;;;;;;;;;7.10;90.40;;;;;;5006380;28;19909;-79
2023/02/03 11:16:19;;;;;;;;;;;7.00;89.40;;;;;;5006157;28;19909;-79
2023/02/03 11:18:56;;;;;;;;;;;7.00;88.50;;;;;;5015550;28;19913;-77
2023/02/03 11:21:30;;;;;;;;;;;7.10;89.80;;;;;;5010586;28;20000;-77
2023/02/03 11:24:00;;;;;;;;;;;7.20;90.00;;;;;;5025395;28;19956;-77
2023/02/03 11:26:28;;;;;;;;;;;6.90;89.20;;;;;;5010554;28;19963;-77
2023/02/03 11:28:56;;;;;;;;;;;6.90;88.90;;;;;;5016249;28;19944;-77
2023/02/03 11:31:28;;;;;;;;;;;7.00;89.00;;;;;;5010720;28;20647;-77
2023/02/03 11:33:56;;;;;;;;;;;7.20;90.50;;;;;;5016897;28;19909;-77
2023/02/03 11:36:25;;;;;;;;;;;7.30;90.00;;;;;;5012175;28;19924;-77
2023/02/03 11:38:50;;;;;;;;;;;7.40;88.80;;;;;;5009224;28;19920;-77
2023/02/03 11:41:17;;;;;;;;;;;7.50;90.00;;;;;;5021309;28;20357;-77
2023/02/03 11:43:43;;;;;;;;;;;7.60;88.40;;;;;;5012498;28;19933;-77
2023/02/03 11:46:09;;;;;;;;;;;7.50;90.10;;;;;;5020995;28;19918;-77
2023/02/03 11:48:36;;;;;;;;;;;7.70;93.70;;;;;;5013252;28;19916;-77
2023/02/03 11:51:20;;;;;;;;;;;7.70;95.00;;;;;;5014317;28;19909;-77
2023/02/03 11:53:45;;;;;;;;;;;7.60;96.90;;;;;;5013344;28;19909;-76
2023/02/03 11:56:11;;;;;;;;;;;7.70;97.30;;;;;;5008660;28;20632;-76
2023/02/03 11:58:37;;;;;;;;;;;7.50;97.20;;;;;;5008136;28;19913;-77
2023/02/03 12:01:21;;;;;;;;;;;7.60;97.60;;;;;;5020306;28;19967;-77
2023/02/03 12:03:56;;;;;;;;;;;7.50;97.20;;;;;;5019569;28;20389;-77
2023/02/03 12:06:32;;;;;;;;;;;7.60;97.90;;;;;;5023638;28;19925;-77
2023/02/03 12:09:16;;;;;;;;;;;7.50;97.50;;;;;;5011246;28;19918;-77
2023/02/03 12:11:42;;;;;;;;;;;7.60;97.50;;;;;;5021235;28;19912;-78
2023/02/03 12:14:07;;;;;;;;;;;7.40;97.20;;;;;;5016893;28;19909;-78
2023/02/03 12:16:54;;;;;;;;;;;7.50;97.60;;;;;;5019823;28;19929;-78
2023/02/03 12:19:25;;;;;;;;;;;7.50;97.90;;;;;;5008788;28;19909;-78
2023/02/03 12:21:59;;;;;;;;;;;7.60;98.20;;;;;;5009455;28;19916;-78
2023/02/03 12:24:37;;;;;;;;;;;7.60;98.00;;;;;;5012886;28;19917;-78
2023/02/03 12:27:02;;;;;;;;;;;7.60;97.20;;;;;;4988166;28;19932;-78
2023/02/03 12:29:42;;;;;;;;;;;7.50;97.10;;;;;;4987139;28;19913;-78
2023/02/03 12:32:18;;;;;;;;;;;7.50;96.60;;;;;;5011483;28;20281;-78
2023/02/03 12:35:11;;;;;;;;;;;7.40;95.90;;;;;;4989003;28;19909;-78
2023/02/03 12:37:42;;;;;;;;;;;7.40;96.40;;;;;;5006791;28;20298;-78
2023/02/03 12:40:14;;;;;;;;;;;7.40;96.90;;;;;;5008043;28;19913;-78
2023/02/03 12:42:52;;;;;;;;;;;7.60;98.40;;;;;;5008640;28;19915;-77
2023/02/03 12:45:20;;;;;;;;;;;7.70;98.70;;;;;;5019114;28;19919;-77
2023/02/03 12:47:50;;;;;;;;;;;7.60;98.50;;;;;;5010218;28;20392;-77
2023/02/03 12:50:44;;;;;;;;;;;7.70;98.90;;;;;;5009301;28;20653;-78
2023/02/03 12:53:13;;;;;;;;;;;7.70;98.90;;;;;;4981477;28;20475;-78
2023/02/03 12:55:54;;;;;;;;;;;7.90;99.40;;;;;;5015533;28;19930;-78
2023/02/03 12:58:31;;;;;;;;;;;7.80;99.10;;;;;;5009249;28;20415;-78
2023/02/03 13:01:00;;;;;;;;;;;7.70;98.00;;;;;;5005915;28;19921;-78
2023/02/03 13:03:31;;;;;;;;;;;7.90;99.30;;;;;;5010007;28;19917;-78
2023/02/03 13:06:06;;;;;;;;;;;7.80;98.60;;;;;;5011316;28;19921;-78
2023/02/03 13:08:40;;;;;;;;;;;7.90;98.80;;;;;;5013480;28;19919;-78
2023/02/03 13:11:15;;;;;;;;;;;7.80;97.80;;;;;;5014360;28;19906;-78
2023/02/03 13:13:48;;;;;;;;;;;7.80;97.90;;;;;;5010055;28;19920;-78
2023/02/03 13:16:15;;;;;;;;;;;7.80;98.70;;;;;;5012829;28;19913;-78
2023/02/03 13:18:43;;;;;;;;;;;7.90;98.30;;;;;;5013893;28;19963;-78
2023/02/03 13:21:10;;;;;;;;;;;8.00;98.30;;;;;;5009838;28;19968;-78
2023/02/03 13:23:38;;;;;;;;;;;7.90;98.40;;;;;;5017658;28;20731;-78
2023/02/03 13:26:07;;;;;;;;;;;7.90;98.70;;;;;;4987263;28;19913;-78
2023/02/03 13:28:53;;;;;;;;;;;8.00;98.90;;;;;;5009398;28;20342;-78
2023/02/03 13:31:18;;;;;;;;;;;7.90;97.80;;;;;;5008679;28;20008;-78
2023/02/03 13:33:56;;;;;;;;;;;8.00;98.90;;;;;;5011137;28;20023;-78
2023/02/03 13:36:33;;;;;;;;;;;8.10;97.90;;;;;;5011842;28;19908;-78
2023/02/03 13:39:24;;;;;;;;;;;8.00;98.30;;;;;;5013124;28;19998;-78
2023/02/03 13:41:54;;;;;;;;;;;8.00;97.70;;;;;;5006295;28;19910;-79
2023/02/03 13:44:25;;;;;;;;;;;8.10;97.10;;;;;;5014436;28;19959;-78
2023/02/03 13:46:51;;;;;;;;;;;8.10;97.80;;;;;;5006862;28;19913;-78
2023/02/03 13:49:25;;;;;;;;;;;8.10;97.60;;;;;;5016754;28;19916;-78
2023/02/03 13:51:50;;;;;;;;;;;8.10;97.70;;;;;;5004145;28;19910;-78
2023/02/03 13:54:26;;;;;;;;;;;8.10;95.70;;;;;;5003971;28;20408;-78
2023/02/03 13:56:58;;;;;;;;;;;8.20;97.00;;;;;;5006414;28;19955;-79
2023/02/03 13:59:28;;;;;;;;;;;8.20;96.90;;;;;;5011667;28;19916;-77
2023/02/03 14:02:13;;;;;;;;;;;8.30;95.90;;;;;;5012531;28;19939;-79
2023/02/03 14:04:45;;;;;;;;;;;8.20;96.50;;;;;;5010223;28;19924;-78
2023/02/03 14:07:22;;;;;;;;;;;8.00;96.30;;;;;;5014009;28;20028;-78
2023/02/03 14:10:06;;;;;;;;;;;8.10;97.10;;;;;;5008508;28;19913;-78
2023/02/03 14:12:33;;;;;;;;;;;8.10;96.50;;;;;;5012503;28;19913;-78
2023/02/03 14:15:17;;;;;;;;;;;8.10;97.40;;;;;;5018975;28;19913;-78
2023/02/03 14:17:43;;;;;;;;;;;8.10;97.20;;;;;;5012597;28;20444;-79
2023/02/03 14:20:30;;;;;;;;;;;8.20;97.40;;;;;;5016533;28;19909;-78
2023/02/03 14:23:05;;;;;;;;;;;8.20;97.10;;;;;;4995701;28;20381;-78
2023/02/03 14:25:32;;;;;;;;;;;8.10;97.20;;;;;;5014466;28;19952;-77
2023/02/03 14:28:02;;;;;;;;;;;8.10;96.90;;;;;;5004518;28;19971;-78
2023/02/03 14:30:28;;;;;;;;;;;8.10;97.20;;;;;;5022334;28;20517;-78
2023/02/03 14:32:54;;;;;;;;;;;8.10;95.90;;;;;;5017844;28;19906;-78
2023/02/03 14:35:21;;;;;;;;;;;8.00;96.20;;;;;;5010472;28;19971;-78
2023/02/03 14:37:51;;;;;;;;;;;7.90;95.50;;;;;;5018661;28;19937;-78